createdAt,value
2022-09-15T13:04:40.306Z,2.10
2022-09-15T13:07:09.330Z,2.20
2022-09-15T13:09:36.440Z,1.93
2022-09-15T13:12:02.956Z,2.13
2022-09-15T13:14:29.522Z,3.13
2022-09-15T13:16:57.019Z,2.77
2022-09-15T13:19:23.877Z,1.80
2022-09-15T13:21:50.470Z,1.83
2022-09-15T13:24:17.052Z,1.73
2022-09-15T13:26:44.705Z,2.07
2022-09-15T13:29:11.372Z,1.30
2022-09-15T13:31:38.048Z,1.77
2022-09-15T13:39:37.810Z,1.90
2022-09-15T13:42:04.414Z,1.70
2022-09-15T13:44:31.014Z,1.67
2022-09-15T13:46:57.579Z,1.70
2022-09-15T13:49:25.458Z,1.47
2022-09-15T13:51:53.357Z,1.20
2022-09-15T13:54:20.112Z,1.27
2022-09-15T13:56:47.329Z,1.50
2022-09-15T13:59:16.280Z,1.90
2022-09-15T14:01:43.383Z,1.80
2022-09-15T14:04:09.949Z,1.70
2022-09-15T14:06:36.656Z,1.90
2022-09-15T14:09:04.429Z,1.80
2022-09-15T14:11:31.153Z,1.33
2022-09-15T14:13:58.144Z,1.90
2022-09-15T14:16:24.852Z,1.90
2022-09-15T14:18:51.538Z,1.60
2022-09-15T14:21:18.132Z,1.80
2022-09-15T14:23:44.725Z,2.33
2022-09-15T14:26:11.591Z,1.60
2022-09-15T14:28:38.609Z,1.60
2022-09-15T14:31:05.203Z,1.87
2022-09-15T14:33:35.538Z,2.10
2022-09-15T14:36:04.496Z,1.77
2022-09-15T14:38:31.180Z,1.47
2022-09-15T14:40:59.309Z,1.77
2022-09-15T14:43:26.706Z,1.60
2022-09-15T14:45:57.239Z,1.97
2022-09-15T14:48:28.146Z,1.80
2022-09-15T14:50:54.813Z,1.90
2022-09-15T14:53:21.390Z,1.90
2022-09-15T14:55:48.125Z,1.73
2022-09-15T14:58:14.717Z,1.70
2022-09-15T15:00:41.853Z,2.27
2022-09-15T15:03:08.412Z,2.13
2022-09-15T15:05:34.971Z,1.80
2022-09-15T15:08:01.609Z,1.77
2022-09-15T15:10:32.216Z,2.20
2022-09-15T15:13:01.538Z,1.50
2022-09-15T15:15:28.133Z,2.27
2022-09-15T15:17:54.871Z,2.40
2022-09-15T15:20:24.659Z,2.13
2022-09-15T15:22:51.189Z,2.40
2022-09-15T15:25:17.728Z,1.73
2022-09-15T15:27:44.389Z,1.93
2022-09-15T15:30:11.936Z,2.00
2022-09-15T15:32:38.492Z,1.60
2022-09-15T15:35:05.081Z,1.53
2022-09-15T15:37:31.633Z,1.67
2022-09-15T15:39:58.240Z,1.47
2022-09-15T15:42:24.886Z,1.47
2022-09-15T15:44:51.428Z,1.87
2022-09-15T15:47:18.015Z,1.50
2022-09-15T15:50:11.723Z,1.60
2022-09-15T15:52:31.126Z,2.33
2022-09-15T15:54:57.718Z,1.50
2022-09-15T15:57:24.354Z,1.80
2022-09-15T15:59:50.910Z,1.10
2022-09-15T16:02:17.759Z,1.30
2022-09-15T16:04:44.389Z,1.53
2022-09-15T16:07:10.982Z,1.80
2022-09-15T16:09:37.653Z,1.40
2022-09-15T16:12:04.463Z,1.70
2022-09-15T16:14:31.114Z,1.43
2022-09-15T16:17:00.654Z,1.47
2022-09-15T16:19:27.305Z,1.20
2022-09-15T16:21:54.044Z,1.40
2022-09-15T16:24:20.601Z,1.63
2022-09-15T16:26:49.576Z,1.20
2022-09-15T16:29:20.205Z,1.63
2022-09-15T16:31:47.308Z,1.10
2022-09-15T16:34:14.076Z,1.70
2022-09-15T16:36:40.689Z,1.43
2022-09-15T16:39:07.255Z,1.27
2022-09-15T16:41:38.973Z,1.33
2022-09-15T16:44:06.745Z,1.07
2022-09-15T16:46:33.373Z,1.37
2022-09-15T16:48:59.939Z,1.80
2022-09-15T16:51:30.973Z,1.77
2022-09-15T16:53:57.839Z,2.00
2022-09-15T16:56:24.467Z,2.53
2022-09-15T16:58:58.828Z,2.90
2022-09-15T17:01:26.676Z,2.37
2022-09-15T17:03:56.061Z,2.37
2022-09-15T17:06:22.705Z,2.70
2022-09-15T17:08:49.257Z,3.87
2022-09-15T17:11:16.845Z,3.80
2022-09-15T17:13:43.529Z,2.77
2022-09-15T17:16:10.158Z,3.10
2022-09-15T17:18:36.749Z,2.80
2022-09-15T17:21:03.338Z,2.93
2022-09-15T17:23:29.859Z,2.60
2022-09-15T17:25:58.335Z,2.13
2022-09-15T17:28:24.911Z,2.10
2022-09-15T17:30:51.863Z,3.20
2022-09-15T17:33:18.648Z,2.60
2022-09-15T17:35:45.201Z,2.37
2022-09-15T17:38:11.784Z,2.90
2022-09-15T17:40:38.374Z,2.60
2022-09-15T17:43:04.919Z,2.30
2022-09-15T17:45:31.554Z,2.60
2022-09-15T17:47:58.062Z,1.73
2022-09-15T17:50:25.012Z,2.80
2022-09-15T17:52:51.638Z,2.17
2022-09-15T17:55:18.173Z,2.30
2022-09-15T17:57:44.830Z,1.73
2022-09-15T18:00:12.557Z,2.10
2022-09-15T18:02:39.146Z,2.80
2022-09-15T18:05:05.754Z,2.37
2022-09-15T18:07:32.333Z,3.10
2022-09-15T18:09:58.932Z,3.43
2022-09-15T18:12:26.038Z,3.13
2022-09-15T18:14:52.604Z,2.77
2022-09-15T18:17:19.231Z,2.70
2022-09-15T18:19:45.774Z,2.63
2022-09-15T18:22:12.320Z,2.80
2022-09-15T18:24:38.838Z,2.23
2022-09-15T18:27:05.386Z,2.87
2022-09-15T18:29:32.101Z,3.37
2022-09-15T18:32:01.671Z,2.83
2022-09-15T18:34:28.223Z,3.53
2022-09-15T18:36:54.964Z,3.20
2022-09-15T18:39:21.649Z,2.90
2022-09-15T18:44:20.587Z,2.50
2022-09-15T18:46:47.202Z,5.80
2022-09-15T18:49:14.363Z,3.13
2022-09-15T18:51:51.490Z,2.83
2022-09-15T18:54:18.332Z,3.50
2022-09-15T18:56:45.088Z,2.90
2022-09-15T18:59:12.452Z,3.30
2022-09-15T19:01:41.138Z,3.00
2022-09-15T19:04:07.694Z,6.13
2022-09-15T19:06:34.243Z,3.23
2022-09-15T19:09:00.803Z,3.40
2022-09-15T19:11:29.367Z,3.43
2022-09-15T19:13:56.062Z,2.77
2022-09-15T19:16:34.597Z,2.63
2022-09-15T19:19:09.804Z,2.47
2022-09-15T19:21:36.506Z,2.27
2022-09-15T19:24:03.173Z,2.10
2022-09-15T19:26:29.717Z,1.80
2022-09-15T19:28:56.291Z,1.70
2022-09-15T19:31:23.021Z,1.97
2022-09-15T19:33:49.680Z,2.17
2022-09-15T19:36:28.116Z,1.70
2022-09-15T19:38:55.926Z,1.80
2022-09-15T19:41:22.557Z,1.80
2022-09-15T19:43:49.228Z,1.90
2022-09-15T19:46:16.138Z,1.40
2022-09-15T19:48:45.662Z,1.20
2022-09-15T19:51:16.512Z,1.53
2022-09-15T19:53:43.126Z,2.33
2022-09-15T19:56:09.816Z,2.03
2022-09-15T19:58:36.659Z,2.33
2022-09-15T20:01:03.244Z,2.33
2022-09-15T20:03:29.854Z,1.90
2022-09-15T20:05:56.494Z,2.40
2022-09-15T20:08:23.141Z,2.50
2022-09-15T20:10:49.686Z,1.87
2022-09-15T20:13:16.231Z,2.00
2022-09-15T20:15:43.110Z,3.17
2022-09-15T20:18:09.754Z,2.40
2022-09-15T20:20:36.349Z,1.33
2022-09-15T20:23:02.880Z,2.10
2022-09-15T20:25:30.467Z,1.70
2022-09-15T20:27:57.029Z,1.30
2022-09-15T20:30:23.857Z,1.23
2022-09-15T20:32:50.634Z,1.23
2022-09-15T20:35:17.528Z,1.10
2022-09-15T20:37:44.190Z,2.50
2022-09-15T20:40:10.847Z,1.53
2022-09-15T20:42:37.492Z,1.80
2022-09-15T20:45:22.618Z,1.20
2022-09-15T20:48:07.673Z,1.47
2022-09-15T20:50:52.862Z,1.40
2022-09-15T20:53:19.777Z,1.40
2022-09-15T20:55:46.332Z,1.67
2022-09-15T20:58:12.864Z,1.80
2022-09-15T21:00:39.426Z,2.23
2022-09-15T21:03:06.066Z,2.60
2022-09-15T21:05:32.611Z,2.10
2022-09-15T21:07:59.471Z,2.40
2022-09-15T21:10:26.140Z,2.10
2022-09-15T21:12:55.879Z,1.53
2022-09-15T21:15:22.457Z,1.57
2022-09-15T21:17:49.808Z,1.47
2022-09-15T21:20:16.467Z,1.90
2022-09-15T21:22:43.009Z,2.23
2022-09-15T21:25:09.596Z,2.03
2022-09-15T21:27:36.491Z,2.43
2022-09-15T21:30:03.088Z,2.10
2022-09-15T21:32:29.819Z,3.67
2022-09-15T21:34:56.346Z,2.80
2022-09-15T21:37:22.915Z,2.90
2022-09-15T21:39:50.212Z,3.60
2022-09-15T21:42:17.446Z,3.00
2022-09-15T21:44:43.979Z,2.60
2022-09-15T21:47:10.565Z,3.60
2022-09-15T21:49:37.077Z,3.73
2022-09-15T21:52:03.670Z,2.70
2022-09-15T21:54:31.390Z,3.47
2022-09-15T21:56:58.202Z,3.50
2022-09-15T21:59:24.771Z,1.87
2022-09-15T22:01:51.663Z,1.23
2022-09-15T22:04:18.310Z,1.70
2022-09-15T22:06:45.023Z,1.80
2022-09-15T22:09:11.628Z,1.50
2022-09-15T22:11:38.169Z,3.83
2022-09-15T22:14:07.886Z,1.30
2022-09-15T22:16:34.516Z,1.60
2022-09-15T22:19:01.196Z,1.67
2022-09-15T22:21:27.788Z,1.50
2022-09-15T22:23:54.428Z,1.13
2022-09-15T22:26:21.268Z,1.30
2022-09-15T22:28:47.798Z,0.90
2022-09-15T22:31:14.377Z,1.37
2022-09-15T22:33:42.174Z,1.10
2022-09-15T22:36:08.704Z,0.90
2022-09-15T22:38:35.231Z,1.10
2022-09-15T22:41:01.928Z,1.20
2022-09-15T22:43:28.686Z,1.43
2022-09-15T22:45:55.278Z,1.77
2022-09-15T22:48:21.898Z,1.23
2022-09-15T22:50:48.418Z,1.23
2022-09-15T22:53:14.943Z,1.30
2022-09-15T22:55:41.548Z,1.50
2022-09-15T22:58:08.223Z,1.70
2022-09-15T23:00:34.782Z,1.33
2022-09-15T23:03:01.517Z,1.23
2022-09-15T23:05:28.065Z,1.63
2022-09-15T23:07:54.613Z,1.20
2022-09-15T23:10:21.160Z,1.63
2022-09-15T23:12:47.758Z,1.83
2022-09-15T23:15:14.269Z,1.90
2022-09-15T23:17:40.979Z,1.60
2022-09-15T23:20:07.480Z,2.50
2022-09-15T23:22:34.031Z,2.20
2022-09-15T23:25:02.479Z,2.83
2022-09-15T23:27:28.989Z,2.33
2022-09-15T23:29:55.518Z,2.70
2022-09-15T23:32:22.070Z,2.80
2022-09-15T23:34:48.876Z,1.97
2022-09-15T23:37:15.467Z,2.50
2022-09-15T23:39:41.979Z,2.30
2022-09-15T23:42:08.520Z,2.10
2022-09-15T23:44:35.061Z,3.23
2022-09-15T23:47:01.765Z,3.40
2022-09-15T23:49:28.373Z,3.23
2022-09-15T23:51:54.948Z,2.33
2022-09-15T23:54:21.444Z,2.90
2022-09-15T23:56:48.816Z,2.83
2022-09-15T23:59:15.377Z,2.50
